Time;durP1;ratioP1;P1;durP2;ratioP2;P2;SDS_P1;SDS_P2;PMS_P1;PMS_P2;Temp;Humidity;BMP_temperature;BMP_pressure;BME280_temperature;BME280_humidity;BME280_pressure;Samples;Min_cycle;Max_cycle;Signal;HPM_P1;HPM_P2
2023/04/25 00:00:46;;;;;;;20.38;4.30;;;5.90;99.90;;;;;;5052296;28;20163;-73
2023/04/25 00:03:11;;;;;;;26.05;3.70;;;5.90;99.90;;;;;;5053876;28;20049;-72
2023/04/25 00:05:37;;;;;;;29.25;4.47;;;5.80;99.90;;;;;;5053119;28;20087;-73
2023/04/25 00:08:04;;;;;;;30.73;3.90;;;5.70;99.90;;;;;;5052718;28;20045;-72
2023/04/25 00:10:30;;;;;;;31.77;4.25;;;5.70;99.90;;;;;;5035775;28;20351;-73
2023/04/25 00:12:57;;;;;;;22.77;3.05;;;5.60;99.90;;;;;;5052973;28;20219;-72
2023/04/25 00:15:24;;;;;;;21.67;3.35;;;5.50;99.90;;;;;;5052456;28;20443;-72
2023/04/25 00:17:52;;;;;;;19.95;3.97;;;5.50;99.90;;;;;;5051931;28;20041;-73
2023/04/25 00:20:18;;;;;;;19.73;3.30;;;5.40;99.90;;;;;;5053231;28;20044;-73
2023/04/25 00:22:44;;;;;;;22.45;3.55;;;5.30;99.90;;;;;;5051376;28;20052;-72
2023/04/25 00:25:10;;;;;;;20.25;3.35;;;5.30;99.90;;;;;;5034958;28;20051;-73
2023/04/25 00:27:35;;;;;;;28.13;3.75;;;5.20;99.90;;;;;;5051446;28;20125;-74
2023/04/25 00:30:02;;;;;;;25.33;3.50;;;5.20;99.90;;;;;;5051539;28;20076;-73
2023/04/25 00:32:28;;;;;;;15.73;3.20;;;5.20;99.90;;;;;;5051367;28;20123;-73
2023/04/25 00:34:55;;;;;;;30.25;4.07;;;5.10;99.90;;;;;;5051886;28;20131;-72
2023/04/25 00:37:21;;;;;;;23.58;3.55;;;5.10;99.90;;;;;;5051715;28;20116;-72
2023/04/25 00:39:47;;;;;;;28.02;3.47;;;5.00;99.90;;;;;;5052651;28;20049;-72
2023/04/25 00:42:13;;;;;;;19.20;2.83;;;5.00;99.90;;;;;;5051830;28;20056;-73
2023/04/25 00:44:40;;;;;;;24.15;3.13;;;5.00;99.90;;;;;;5052571;28;20037;-73
2023/04/25 00:47:07;;;;;;;23.40;3.55;;;4.90;99.90;;;;;;5053394;28;20053;-73
2023/04/25 00:49:32;;;;;;;18.35;3.65;;;4.90;99.90;;;;;;5035325;28;20049;-72
2023/04/25 00:51:58;;;;;;;23.88;3.72;;;4.90;99.90;;;;;;5052711;28;20079;-72
2023/04/25 00:54:25;;;;;;;22.90;3.97;;;4.80;99.90;;;;;;5052643;28;20049;-73
2023/04/25 00:56:50;;;;;;;28.58;3.25;;;4.70;99.90;;;;;;5052727;28;20382;-73
2023/04/25 00:59:18;;;;;;;22.95;3.10;;;4.70;99.90;;;;;;5052555;28;20056;-73
2023/04/25 01:01:44;;;;;;;28.73;3.72;;;4.70;99.90;;;;;;5052328;28;20049;-73
2023/04/25 01:04:10;;;;;;;19.05;3.75;;;4.60;99.90;;;;;;5034918;28;20045;-73
2023/04/25 01:06:36;;;;;;;30.27;4.45;;;4.70;99.90;;;;;;5052469;28;20565;-72
2023/04/25 01:09:03;;;;;;;24.25;3.58;;;4.70;99.90;;;;;;5051856;28;20128;-74
2023/04/25 01:11:29;;;;;;;28.20;4.85;;;4.70;99.90;;;;;;5055241;28;20091;-72
2023/04/25 01:13:55;;;;;;;26.92;4.82;;;4.60;99.90;;;;;;5038330;28;20053;-73
2023/04/25 01:16:23;;;;;;;19.80;3.90;;;4.80;99.90;;;;;;5055109;28;20075;-73
2023/04/25 01:18:50;;;;;;;22.45;3.67;;;4.80;99.90;;;;;;5039306;28;20476;-73
2023/04/25 01:21:16;;;;;;;25.90;3.53;;;4.80;99.90;;;;;;5054765;28;20055;-74
2023/04/25 01:23:42;;;;;;;24.10;3.45;;;4.80;99.90;;;;;;5056032;28;20057;-74
2023/04/25 01:26:10;;;;;;;18.92;3.20;;;4.80;99.90;;;;;;5055945;28;20127;-74
2023/04/25 01:28:36;;;;;;;19.30;3.75;;;4.80;99.90;;;;;;5054546;28;20064;-73
2023/04/25 01:31:03;;;;;;;28.13;3.72;;;4.70;99.90;;;;;;5054860;28;20179;-73
2023/04/25 01:33:29;;;;;;;19.67;3.60;;;4.70;99.90;;;;;;5056104;28;20077;-72
2023/04/25 01:35:55;;;;;;;26.02;3.83;;;4.70;99.90;;;;;;5055691;28;20080;-73
2023/04/25 01:38:21;;;;;;;26.50;3.72;;;4.70;99.90;;;;;;5038918;28;20049;-73
2023/04/25 01:40:48;;;;;;;19.98;3.85;;;4.70;99.90;;;;;;5055208;28;20052;-73
2023/04/25 01:43:14;;;;;;;20.63;3.33;;;4.70;99.90;;;;;;5054937;28;20049;-73
2023/04/25 01:45:43;;;;;;;20.27;3.63;;;4.70;99.90;;;;;;5055318;28;20527;-73
2023/04/25 01:48:11;;;;;;;22.17;4.55;;;4.80;99.90;;;;;;5054242;28;20394;-73
2023/04/25 01:50:38;;;;;;;18.75;3.80;;;4.80;99.90;;;;;;5055447;28;20053;-72
2023/04/25 01:53:05;;;;;;;27.70;4.28;;;4.80;99.90;;;;;;5054308;28;20456;-74
2023/04/25 01:55:30;;;;;;;20.35;3.20;;;4.80;99.90;;;;;;5037719;28;20049;-72
2023/04/25 01:57:56;;;;;;;25.58;4.40;;;4.90;99.90;;;;;;5053530;28;20052;-74
2023/04/25 02:00:22;;;;;;;20.10;3.45;;;4.90;99.90;;;;;;5055898;28;20045;-74
2023/04/25 02:02:50;;;;;;;21.65;3.90;;;4.90;99.90;;;;;;5053868;28;20088;-73
2023/04/25 02:05:16;;;;;;;25.92;4.20;;;4.90;99.90;;;;;;5055938;28;20049;-73
2023/04/25 02:07:42;;;;;;;22.70;3.60;;;4.90;99.90;;;;;;5055730;28;20095;-73
2023/04/25 02:10:08;;;;;;;28.90;3.47;;;5.00;99.90;;;;;;5055590;28;20079;-73
2023/04/25 02:12:35;;;;;;;17.20;4.60;;;5.00;99.90;;;;;;5054048;28;20045;-74
2023/04/25 02:15:01;;;;;;;25.50;3.38;;;5.00;99.90;;;;;;5054723;28;20076;-72
2023/04/25 02:17:27;;;;;;;21.40;2.53;;;5.00;99.90;;;;;;5054028;28;20497;-73
2023/04/25 02:19:53;;;;;;;16.08;2.85;;;5.00;99.90;;;;;;5054859;28;20083;-73
2023/04/25 02:22:18;;;;;;;26.33;2.92;;;5.00;99.90;;;;;;5036414;28;20483;-72
2023/04/25 02:24:45;;;;;;;14.30;1.92;;;5.10;99.90;;;;;;5055142;28;20053;-72
2023/04/25 02:27:10;;;;;;;20.33;2.63;;;5.20;99.90;;;;;;5054330;28;20041;-74
2023/04/25 02:29:36;;;;;;;19.92;2.10;;;5.10;99.90;;;;;;5053512;28;20494;-75
2023/04/25 02:32:02;;;;;;;19.00;1.92;;;5.20;99.90;;;;;;5053290;28;20045;-75
2023/04/25 02:34:28;;;;;;;20.23;2.67;;;5.20;99.90;;;;;;5054619;28;20052;-73
2023/04/25 02:36:53;;;;;;;13.00;2.30;;;5.20;99.90;;;;;;5054837;28;20088;-75
2023/04/25 02:39:19;;;;;;;20.63;2.63;;;5.20;99.90;;;;;;5054490;28;20389;-74
2023/04/25 02:41:45;;;;;;;18.58;3.20;;;5.30;99.90;;;;;;5054313;28;20051;-74
2023/04/25 02:44:11;;;;;;;19.40;2.42;;;5.30;99.90;;;;;;5053811;28;20533;-72
2023/04/25 02:46:36;;;;;;;26.02;3.13;;;5.40;99.90;;;;;;5054382;28;20049;-74
2023/04/25 02:49:02;;;;;;;22.45;2.63;;;5.40;99.90;;;;;;5053723;28;20194;-75
2023/04/25 02:51:28;;;;;;;21.05;2.63;;;5.30;99.90;;;;;;5053202;28;20091;-73
2023/04/25 02:53:53;;;;;;;23.15;2.28;;;5.40;99.90;;;;;;5054151;28;20045;-74
2023/04/25 02:56:19;;;;;;;20.40;2.55;;;5.30;99.90;;;;;;5054262;28;20431;-74
2023/04/25 02:58:45;;;;;;;17.88;2.00;;;5.40;99.90;;;;;;5053135;28;20052;-74
2023/04/25 03:01:11;;;;;;;17.55;2.80;;;5.40;99.90;;;;;;5053001;28;20132;-73
2023/04/25 03:03:36;;;;;;;23.95;3.03;;;5.30;99.90;;;;;;5054312;28;20049;-73
2023/04/25 03:06:02;;;;;;;19.40;2.13;;;5.20;99.90;;;;;;5052928;28;20052;-74
2023/04/25 03:08:32;;;;;;;9.15;1.30;;;5.20;99.90;;;;;;5036325;28;20049;-74
2023/04/25 03:10:58;;;;;;;8.90;1.05;;;5.10;99.90;;;;;;5053559;28;20059;-74
2023/04/25 03:13:24;;;;;;;13.02;1.90;;;5.10;99.90;;;;;;5053860;28;20068;-75
2023/04/25 03:15:50;;;;;;;12.25;1.42;;;5.10;99.90;;;;;;5052783;28;20220;-74
2023/04/25 03:18:15;;;;;;;14.20;2.72;;;5.10;99.90;;;;;;5052646;28;20236;-76
2023/04/25 03:20:41;;;;;;;15.52;1.92;;;5.10;99.90;;;;;;5053688;28;20103;-74
2023/04/25 03:23:07;;;;;;;10.35;1.38;;;5.10;99.90;;;;;;5054313;28;20171;-75
2023/04/25 03:25:33;;;;;;;12.23;1.35;;;5.10;99.90;;;;;;5053450;28;20049;-75
2023/04/25 03:27:59;;;;;;;14.25;1.20;;;5.10;99.90;;;;;;5053904;28;20037;-74
2023/04/25 03:30:25;;;;;;;9.10;1.52;;;5.10;99.90;;;;;;5053949;28;20424;-75
2023/04/25 03:32:50;;;;;;;10.05;1.20;;;5.10;99.90;;;;;;5035400;28;20045;-74
2023/04/25 03:35:16;;;;;;;11.27;1.42;;;5.10;99.90;;;;;;5052355;28;20133;-73
2023/04/25 03:37:45;;;;;;;11.80;1.23;;;5.10;99.90;;;;;;5053529;28;20106;-73
2023/04/25 03:40:11;;;;;;;17.23;2.30;;;5.10;99.90;;;;;;5052354;28;20056;-74
2023/04/25 03:42:37;;;;;;;18.38;1.98;;;5.10;99.90;;;;;;5053405;28;20053;-74
2023/04/25 03:45:03;;;;;;;16.88;1.45;;;5.10;99.90;;;;;;5053179;28;20048;-74
2023/04/25 03:47:29;;;;;;;13.60;1.38;;;5.10;99.90;;;;;;5052887;28;20454;-75
2023/04/25 03:49:54;;;;;;;19.45;2.33;;;5.10;99.90;;;;;;5054001;28;20124;-77
2023/04/25 03:52:20;;;;;;;13.45;1.77;;;5.20;99.90;;;;;;5054076;28;20595;-74
2023/04/25 03:54:46;;;;;;;10.65;1.55;;;5.20;99.90;;;;;;5053116;28;20092;-72
2023/04/25 03:57:12;;;;;;;12.23;1.42;;;5.30;99.90;;;;;;5052482;28;20385;-74
2023/04/25 03:59:37;;;;;;;16.73;1.50;;;5.20;99.90;;;;;;5053184;28;20045;-75
2023/04/25 04:02:03;;;;;;;7.07;0.82;;;5.20;99.90;;;;;;5052141;28;20063;-73
2023/04/25 04:04:29;;;;;;;6.95;0.93;;;5.10;99.90;;;;;;5052144;28;20132;-75
2023/04/25 04:06:55;;;;;;;17.00;1.30;;;5.10;99.90;;;;;;5053213;28;20397;-72
2023/04/25 04:09:21;;;;;;;12.38;1.35;;;5.00;99.90;;;;;;5018946;28;20049;-74
2023/04/25 04:11:47;;;;;;;5.90;0.80;;;5.00;99.90;;;;;;5053961;28;20059;-74
2023/04/25 04:14:13;;;;;;;9.80;1.30;;;5.00;99.90;;;;;;5053358;28;20389;-75
2023/04/25 04:16:39;;;;;;;10.27;1.20;;;4.90;99.90;;;;;;5053179;28;20124;-74
2023/04/25 04:19:04;;;;;;;9.57;0.95;;;5.00;99.90;;;;;;5052760;28;20041;-74
2023/04/25 04:21:30;;;;;;;11.23;1.38;;;4.90;99.90;;;;;;5035627;28;20065;-76
2023/04/25 04:23:57;;;;;;;6.60;0.70;;;4.80;99.90;;;;;;5052928;28;20068;-76
2023/04/25 04:26:23;;;;;;;6.68;1.02;;;4.90;99.90;;;;;;5056271;28;20075;-75
2023/04/25 04:28:54;;;;;;;9.00;0.90;;;4.80;99.90;;;;;;5054318;28;20482;-75
2023/04/25 04:31:21;;;;;;;7.78;2.08;;;4.80;99.90;;;;;;5054763;28;20052;-73
2023/04/25 04:33:47;;;;;;;15.25;1.42;;;4.80;99.90;;;;;;5054787;28;20122;-74
2023/04/25 04:36:13;;;;;;;14.07;1.20;;;4.80;99.90;;;;;;5053098;28;20052;-75
2023/04/25 04:38:40;;;;;;;12.13;1.40;;;4.90;99.90;;;;;;5053050;28;20056;-75
2023/04/25 04:41:06;;;;;;;8.23;0.90;;;5.00;99.90;;;;;;5053972;28;20389;-74
2023/04/25 04:43:33;;;;;;;11.77;1.70;;;4.90;99.90;;;;;;5055153;28;20055;-74
2023/04/25 04:46:00;;;;;;;12.88;1.40;;;5.00;99.90;;;;;;5056361;28;20088;-75
2023/04/25 04:48:26;;;;;;;;;;;5.00;99.90;;;;;;5057119;28;20071;-74
2023/04/25 04:50:52;;;;;;;15.00;1.83;;;5.10;99.90;;;;;;5089026;28;20269;-75
2023/04/25 04:53:18;;;;;;;17.42;1.58;;;5.10;99.90;;;;;;5038912;28;20055;-76
2023/04/25 04:55:44;;;;;;;17.23;2.15;;;5.00;99.90;;;;;;5057396;28;20487;-73
2023/04/25 04:58:09;;;;;;;19.67;2.45;;;5.00;99.90;;;;;;5057038;28;20079;-77
2023/04/25 05:00:35;;;;;;;13.85;1.58;;;4.80;99.90;;;;;;5055232;28;20049;-74
2023/04/25 05:03:01;;;;;;;15.40;1.52;;;4.70;99.90;;;;;;5056216;28;20072;-76
2023/04/25 05:05:27;;;;;;;15.95;1.80;;;4.60;99.90;;;;;;5056219;28;20416;-73
2023/04/25 05:07:52;;;;;;;20.13;1.83;;;4.50;99.90;;;;;;5055148;28;20041;-73
2023/04/25 05:10:19;;;;;;;11.73;1.38;;;4.50;99.90;;;;;;5056707;28;20045;-74
2023/04/25 05:12:45;;;;;;;14.48;1.70;;;4.50;99.90;;;;;;5056187;28;20492;-74
2023/04/25 05:15:11;;;;;;;20.17;1.98;;;4.50;99.90;;;;;;5055200;28;20048;-74
2023/04/25 05:17:37;;;;;;;13.77;1.33;;;4.50;99.90;;;;;;5054711;28;20413;-74
2023/04/25 05:20:05;;;;;;;19.90;1.60;;;4.60;99.90;;;;;;5056311;28;20044;-74
2023/04/25 05:22:31;;;;;;;13.10;2.03;;;4.60;99.90;;;;;;5054062;28;20474;-74
2023/04/25 05:24:57;;;;;;;16.27;1.45;;;4.70;99.90;;;;;;5056045;28;20053;-73
2023/04/25 05:27:24;;;;;;;22.27;3.13;;;4.70;99.90;;;;;;5037611;28;20472;-73
2023/04/25 05:29:50;;;;;;;9.68;1.30;;;4.80;99.90;;;;;;5038035;28;20048;-72
2023/04/25 05:32:15;;;;;;;26.25;2.25;;;4.90;99.90;;;;;;5055514;28;20093;-75
2023/04/25 05:34:41;;;;;;;15.57;1.40;;;5.00;99.90;;;;;;5055555;28;20053;-74
2023/04/25 05:37:07;;;;;;;12.57;1.33;;;4.90;99.90;;;;;;5054212;28;20041;-73
2023/04/25 05:39:33;;;;;;;17.85;1.77;;;4.90;99.90;;;;;;5054314;28;20060;-74
2023/04/25 05:41:58;;;;;;;20.70;1.30;;;4.90;99.90;;;;;;5054911;28;20064;-74
2023/04/25 05:44:24;;;;;;;14.82;1.80;;;4.90;99.90;;;;;;5055403;28;20045;-73
2023/04/25 05:46:50;;;;;;;8.48;1.58;;;4.90;99.90;;;;;;5053975;28;20152;-74
2023/04/25 05:49:16;;;;;;;16.50;1.50;;;5.00;99.90;;;;;;5054662;28;20056;-75
2023/04/25 05:51:41;;;;;;;12.20;1.58;;;5.30;99.90;;;;;;5054035;28;20140;-74
2023/04/25 05:54:07;;;;;;;13.23;2.00;;;5.40;99.90;;;;;;5054296;28;20048;-75
2023/04/25 05:56:33;;;;;;;14.52;1.73;;;5.50;99.90;;;;;;5087082;28;20052;-73
2023/04/25 05:58:59;;;;;;;11.43;1.60;;;5.70;99.90;;;;;;5054944;28;20041;-74
2023/04/25 06:01:25;;;;;;;13.68;2.17;;;5.80;99.90;;;;;;5054585;28;20107;-75
2023/04/25 06:03:52;;;;;;;12.23;1.67;;;5.90;99.90;;;;;;5053746;28;20072;-74
2023/04/25 06:06:18;;;;;;;7.45;1.35;;;6.00;99.90;;;;;;5054709;28;20420;-74
2023/04/25 06:08:44;;;;;;;14.85;1.40;;;6.00;99.90;;;;;;5054153;28;20051;-75
2023/04/25 06:11:10;;;;;;;16.60;1.83;;;6.00;99.90;;;;;;5053650;28;20071;-77
2023/04/25 06:13:36;;;;;;;11.48;1.95;;;6.10;99.90;;;;;;5054853;28;20049;-76
2023/04/25 06:16:02;;;;;;;10.45;1.23;;;6.10;99.90;;;;;;5053781;28;20137;-73
2023/04/25 06:18:28;;;;;;;14.98;1.63;;;6.10;99.90;;;;;;5054254;28;20045;-74
2023/04/25 06:20:53;;;;;;;14.00;1.52;;;6.10;99.90;;;;;;5054934;28;20131;-74
2023/04/25 06:23:19;;;;;;;13.48;1.83;;;6.10;99.90;;;;;;5055078;28;20100;-74
2023/04/25 06:25:45;;;;;;;12.43;1.10;;;6.20;99.90;;;;;;5055457;28;20053;-73
2023/04/25 06:28:10;;;;;;;9.38;1.17;;;6.20;99.90;;;;;;5036331;28;20117;-74
2023/04/25 06:30:36;;;;;;;11.10;1.38;;;6.20;99.90;;;;;;5055275;28;20057;-73
2023/04/25 06:33:02;;;;;;;12.75;1.70;;;6.30;99.90;;;;;;5053025;28;20489;-73
2023/04/25 06:35:28;;;;;;;11.77;1.15;;;6.40;99.90;;;;;;5054438;28;20049;-77
2023/04/25 06:37:53;;;;;;;15.00;1.40;;;6.50;99.90;;;;;;5053236;28;20061;-75
2023/04/25 06:40:19;;;;;;;15.65;1.50;;;6.50;99.90;;;;;;5053333;28;20045;-73
2023/04/25 06:42:45;;;;;;;16.45;1.38;;;6.50;99.90;;;;;;5053217;28;20049;-75
2023/04/25 06:45:10;;;;;;;8.10;1.23;;;6.40;99.90;;;;;;5036748;28;20478;-75
2023/04/25 06:47:36;;;;;;;10.25;1.02;;;6.40;99.90;;;;;;5036623;28;20123;-74
2023/04/25 06:50:02;;;;;;;10.30;0.93;;;6.30;99.90;;;;;;5053180;28;20041;-75
2023/04/25 06:52:28;;;;;;;12.38;1.00;;;6.40;99.90;;;;;;5037342;28;20057;-75
2023/04/25 06:54:53;;;;;;;16.23;1.52;;;6.50;99.90;;;;;;5054039;28;20047;-75
2023/04/25 06:57:19;;;;;;;11.13;2.00;;;6.60;99.90;;;;;;5052932;28;20436;-74
2023/04/25 06:59:45;;;;;;;15.20;1.50;;;6.70;99.90;;;;;;5053055;28;20037;-75
2023/04/25 07:02:11;;;;;;;12.82;1.10;;;6.70;99.90;;;;;;5053740;28;20087;-75
2023/04/25 07:04:37;;;;;;;10.80;1.10;;;6.70;99.90;;;;;;5053188;28;20048;-74
2023/04/25 07:07:03;;;;;;;10.50;0.70;;;6.90;99.90;;;;;;5053076;28;20097;-77
2023/04/25 07:09:29;;;;;;;9.87;1.30;;;7.00;99.90;;;;;;5036252;28;20443;-75
2023/04/25 07:11:56;;;;;;;14.30;1.48;;;7.10;99.90;;;;;;5053361;28;20377;-75
2023/04/25 07:14:22;;;;;;;8.93;0.98;;;7.20;99.90;;;;;;5054473;28;20052;-75
2023/04/25 07:16:48;;;;;;;15.13;1.33;;;7.40;99.90;;;;;;5052514;28;20048;-75
2023/04/25 07:19:13;;;;;;;13.40;0.90;;;7.60;99.90;;;;;;5053876;28;20047;-73
2023/04/25 07:21:39;;;;;;;17.00;1.45;;;7.60;99.90;;;;;;5036545;28;20052;-74
2023/04/25 07:24:05;;;;;;;11.70;1.02;;;7.50;99.90;;;;;;5052246;28;20136;-75
2023/04/25 07:26:31;;;;;;;6.60;0.77;;;7.50;99.90;;;;;;5053783;28;20053;-78
2023/04/25 07:28:57;;;;;;;8.27;0.70;;;7.50;99.90;;;;;;5053199;28;20462;-77
2023/04/25 07:31:23;;;;;;;4.50;0.50;;;7.40;99.90;;;;;;5054023;28;20084;-76
2023/04/25 07:33:49;;;;;;;10.98;0.70;;;7.10;99.90;;;;;;5053647;28;20052;-75
2023/04/25 07:36:15;;;;;;;8.10;1.30;;;7.10;99.90;;;;;;5052574;28;20060;-76
2023/04/25 07:38:41;;;;;;;7.85;0.63;;;7.00;99.90;;;;;;5052814;28;20124;-75
2023/04/25 07:41:07;;;;;;;9.50;0.70;;;6.90;99.90;;;;;;5052572;28;20072;-77
2023/04/25 07:43:32;;;;;;;8.20;0.85;;;6.90;99.90;;;;;;5035779;28;20099;-74
2023/04/25 07:45:58;;;;;;;16.90;1.40;;;7.00;99.90;;;;;;5052573;28;20041;-78
2023/04/25 07:48:24;;;;;;;10.25;0.63;;;7.10;99.90;;;;;;5052490;28;20132;-76
2023/04/25 07:50:49;;;;;;;8.65;0.85;;;7.10;99.90;;;;;;5053098;28;20094;-74
2023/04/25 07:53:16;;;;;;;7.47;0.70;;;7.10;99.90;;;;;;5052671;28;20037;-75
2023/04/25 07:55:41;;;;;;;8.63;0.73;;;7.20;99.90;;;;;;5035594;28;20084;-75
2023/04/25 07:58:08;;;;;;;8.40;0.80;;;7.30;99.90;;;;;;5053635;28;20083;-75
2023/04/25 08:00:33;;;;;;;11.18;1.08;;;7.40;99.90;;;;;;5052161;28;20131;-76
2023/04/25 08:02:59;;;;;;;9.93;0.82;;;7.50;99.90;;;;;;5053197;28;20087;-73
2023/04/25 08:05:25;;;;;;;11.73;0.95;;;7.70;99.90;;;;;;5053588;28;20045;-76
2023/04/25 08:07:51;;;;;;;17.85;1.55;;;7.80;99.90;;;;;;5052328;28;20531;-78
2023/04/25 08:10:17;;;;;;;9.55;1.20;;;7.40;99.90;;;;;;5051966;28;20048;-74
2023/04/25 08:12:42;;;;;;;7.75;1.23;;;7.60;99.90;;;;;;5035523;28;20137;-74
2023/04/25 08:15:09;;;;;;;11.98;1.17;;;7.80;99.90;;;;;;5035765;28;20045;-78
2023/04/25 08:17:35;;;;;;;13.50;1.10;;;7.80;99.90;;;;;;5053435;28;20049;-77
2023/04/25 08:20:01;;;;;;;12.32;0.82;;;7.80;99.90;;;;;;5039106;28;20051;-73
2023/04/25 08:22:28;;;;;;;11.38;1.08;;;7.70;99.90;;;;;;5057452;28;20045;-76
2023/04/25 08:24:54;;;;;;;5.03;0.73;;;7.70;99.90;;;;;;5039891;28;20489;-75
2023/04/25 08:27:20;;;;;;;16.50;1.70;;;7.80;99.90;;;;;;5056586;28;20041;-76
2023/04/25 08:29:46;;;;;;;11.93;0.90;;;7.00;99.90;;;;;;5057072;28;20049;-74
2023/04/25 08:32:12;;;;;;;13.05;1.25;;;6.60;99.90;;;;;;5057080;28;20435;-76
2023/04/25 08:34:41;;;;;;;10.43;1.27;;;6.10;99.90;;;;;;5039728;28;20053;-76
2023/04/25 08:37:09;;;;;;;8.93;1.00;;;5.80;99.90;;;;;;5039951;28;20057;-76
2023/04/25 08:39:35;;;;;;;9.52;0.85;;;5.60;99.90;;;;;;5056748;28;20049;-74
2023/04/25 08:42:07;;;;;;;8.63;0.80;;;5.20;99.90;;;;;;5055596;28;20041;-73
2023/04/25 08:44:34;;;;;;;4.45;0.43;;;5.30;99.90;;;;;;5057016;28;20662;-74
2023/04/25 08:47:05;;;;;;;4.65;0.57;;;5.30;99.90;;;;;;5055498;28;20153;-73
2023/04/25 08:49:34;;;;;;;5.13;0.50;;;5.20;99.90;;;;;;5057194;28;20049;-73
2023/04/25 08:52:04;;;;;;;7.47;0.47;;;5.40;99.90;;;;;;5056142;28;20048;-74
2023/04/25 08:54:31;;;;;;;4.82;0.55;;;5.60;99.90;;;;;;5056789;28;20106;-74
2023/04/25 08:57:01;;;;;;;7.15;0.40;;;5.70;99.90;;;;;;5055664;28;20049;-75
2023/04/25 08:59:28;;;;;;;3.58;0.40;;;5.80;99.90;;;;;;5039737;28;20504;-75
2023/04/25 09:01:55;;;;;;;8.55;0.63;;;5.70;99.90;;;;;;5055192;28;20052;-74
2023/04/25 09:04:21;;;;;;;7.32;0.50;;;5.80;99.90;;;;;;5038997;28;20084;-73
2023/04/25 09:06:47;;;;;;;5.15;0.50;;;5.70;99.90;;;;;;5056275;28;20558;-76
2023/04/25 09:09:13;;;;;;;6.03;0.73;;;5.90;99.90;;;;;;5038617;28;20037;-73
2023/04/25 09:11:40;;;;;;;7.82;0.73;;;6.10;99.90;;;;;;5056071;28;20453;-74
2023/04/25 09:14:23;;;;;;;7.82;0.77;;;6.20;99.90;;;;;;5055230;28;20067;-74
2023/04/25 09:17:00;;;;;;;8.55;0.80;;;6.20;99.90;;;;;;5056060;28;20166;-75
2023/04/25 09:19:35;;;;;;;5.18;0.50;;;6.40;99.90;;;;;;5056212;28;20041;-73
2023/04/25 09:22:03;;;;;;;3.95;0.50;;;6.60;99.90;;;;;;5056018;28;20076;-73
2023/04/25 09:24:34;;;;;;;14.25;1.08;;;6.60;99.90;;;;;;5056559;28;20056;-75
2023/04/25 09:27:02;;;;;;;11.57;0.70;;;6.80;99.90;;;;;;5056458;28;20049;-75
2023/04/25 09:29:31;;;;;;;8.88;0.52;;;7.10;99.90;;;;;;5056066;28;20049;-73
2023/04/25 09:32:23;;;;;;;4.82;0.50;;;7.10;99.90;;;;;;5055222;28;20065;-73
2023/04/25 09:34:58;;;;;;;7.97;0.63;;;7.30;99.90;;;;;;5059433;28;20060;-76
2023/04/25 09:37:26;;;;;;;12.00;0.65;;;7.70;99.90;;;;;;5058810;28;20057;-73
2023/04/25 09:39:59;;;;;;;9.95;0.63;;;7.90;99.90;;;;;;5056324;28;20395;-75
2023/04/25 09:42:28;;;;;;;12.05;1.00;;;8.10;99.90;;;;;;5059609;28;20045;-74
2023/04/25 09:44:55;;;;;;;7.40;0.63;;;8.40;99.90;;;;;;5059481;28;20053;-75
2023/04/25 09:47:23;;;;;;;;;;;8.50;99.90;;;;;;5060455;28;20068;-75
2023/04/25 09:49:49;;;;;;;7.47;0.45;;;8.70;99.90;;;;;;5058984;28;20281;-74
2023/04/25 09:52:17;;;;;;;8.57;0.90;;;8.90;99.90;;;;;;5059391;28;20049;-73
2023/04/25 09:54:45;;;;;;;11.70;0.90;;;9.00;99.90;;;;;;5057283;28;20048;-74
2023/04/25 09:57:15;;;;;;;13.15;0.80;;;9.00;99.90;;;;;;5056832;28;20049;-75
2023/04/25 09:59:54;;;;;;;12.55;0.90;;;9.10;99.90;;;;;;5057365;28;20045;-77
2023/04/25 10:02:22;;;;;;;16.17;1.15;;;9.10;99.90;;;;;;5055377;28;20045;-75
2023/04/25 10:04:52;;;;;;;18.27;1.10;;;9.30;99.90;;;;;;5055243;28;20048;-74
2023/04/25 10:07:20;;;;;;;11.43;1.10;;;9.40;99.90;;;;;;5038404;28;20059;-73
2023/04/25 10:09:50;;;;;;;9.05;1.10;;;9.50;99.90;;;;;;5053849;28;20092;-74
2023/04/25 10:12:16;;;;;;;9.98;0.70;;;9.70;99.90;;;;;;5054161;28;20505;-75
2023/04/25 10:14:43;;;;;;;10.75;1.05;;;10.00;99.90;;;;;;5055138;28;20045;-76
2023/04/25 10:17:11;;;;;;;15.20;1.15;;;10.20;99.90;;;;;;5037796;28;20052;-76
2023/04/25 10:19:37;;;;;;;12.45;1.15;;;10.00;99.90;;;;;;5055030;28;20045;-76
2023/04/25 10:22:28;;;;;;;6.50;0.68;;;10.00;99.90;;;;;;5055035;28;20045;-75
2023/04/25 10:24:56;;;;;;;10.38;1.00;;;9.50;99.90;;;;;;5053276;28;20515;-73
2023/04/25 10:27:22;;;;;;;11.05;0.80;;;7.80;99.90;;;;;;5054790;28;20049;-72
2023/04/25 10:30:04;;;;;;;10.48;1.30;;;7.10;99.90;;;;;;5054520;28;20400;-73
2023/04/25 10:32:33;;;;;;;7.22;1.10;;;6.60;99.90;;;;;;5053848;28;20041;-74
2023/04/25 10:35:14;;;;;;;8.50;1.10;;;6.70;99.90;;;;;;5054691;28;20048;-74
2023/04/25 10:38:00;;;;;;;8.55;1.50;;;6.70;99.90;;;;;;5055238;28;20111;-75
2023/04/25 10:40:26;;;;;;;10.57;1.85;;;6.70;99.90;;;;;;5054032;28;20389;-76
2023/04/25 10:42:56;;;;;;;18.35;4.43;;;6.70;99.90;;;;;;5054886;28;20041;-73
2023/04/25 10:45:22;;;;;;;7.35;0.98;;;6.90;99.90;;;;;;5037532;28;20057;-75
2023/04/25 10:47:48;;;;;;;13.02;1.00;;;7.20;99.90;;;;;;5053258;28;20051;-75
2023/04/25 10:50:17;;;;;;;8.93;1.00;;;7.70;99.90;;;;;;5036811;28;20102;-73
2023/04/25 10:52:44;;;;;;;7.50;0.73;;;8.00;99.90;;;;;;5053437;28;20084;-73
2023/04/25 10:55:10;;;;;;;6.53;0.70;;;8.40;99.90;;;;;;5053066;28;20048;-75
2023/04/25 10:57:43;;;;;;;10.05;0.77;;;8.80;99.90;;;;;;5054993;28;20053;-74
2023/04/25 11:00:22;;;;;;;6.93;0.57;;;9.00;99.90;;;;;;5054110;28;20100;-73
2023/04/25 11:02:58;;;;;;;10.30;1.08;;;9.20;99.90;;;;;;5053634;28;20102;-73
2023/04/25 11:05:35;;;;;;;8.27;0.90;;;9.00;99.90;;;;;;5055034;28;20127;-75
2023/04/25 11:08:03;;;;;;;;;;;9.20;99.90;;;;;;5053280;28;20051;-74
2023/04/25 11:10:35;;;;;;;7.38;0.93;;;9.40;99.90;;;;;;5053128;28;20401;-74
2023/04/25 11:13:01;;;;;;;9.52;1.10;;;9.40;99.90;;;;;;5053708;28;20041;-76
2023/04/25 11:15:27;;;;;;;10.80;1.15;;;9.50;99.90;;;;;;5037213;28;20086;-75
2023/04/25 11:17:54;;;;;;;10.70;0.90;;;9.50;99.90;;;;;;5053837;28;20127;-74
2023/04/25 11:20:21;;;;;;;7.60;1.00;;;;;;;;;;5052688;28;20397;-75
2023/04/25 11:22:47;;;;;;;10.82;0.88;;;;;;;;;;5052619;28;20052;-74
2023/04/25 11:25:15;;;;;;;8.23;1.00;;;9.70;99.90;;;;;;5053685;28;20442;-73
2023/04/25 11:27:53;;;;;;;10.48;0.88;;;9.70;99.90;;;;;;5052436;28;20432;-73
2023/04/25 11:30:20;;;;;;;9.32;1.10;;;9.50;99.90;;;;;;5054237;28;20049;-72
2023/04/25 11:32:46;;;;;;;10.20;1.05;;;9.70;99.90;;;;;;5069254;28;20505;-72
2023/04/25 11:35:12;;;;;;;6.75;0.60;;;;;;;;;;5053521;28;20346;-72
2023/04/25 11:37:42;;;;;;;4.47;0.55;;;9.20;99.90;;;;;;5053650;28;20131;-76
2023/04/25 11:40:11;;;;;;;6.55;0.80;;;9.40;99.90;;;;;;5035479;28;20212;-74
2023/04/25 11:42:44;;;;;;;12.90;0.88;;;9.70;99.90;;;;;;5053464;28;20049;-75
2023/04/25 11:45:10;;;;;;;8.05;0.65;;;9.80;99.90;;;;;;5053192;28;20049;-80
2023/04/25 11:47:36;;;;;;;9.52;1.20;;;10.00;99.90;;;;;;5052099;28;20393;-78
2023/04/25 11:50:04;;;;;;;10.50;0.70;;;10.20;99.90;;;;;;5053210;28;20571;-74
2023/04/25 11:52:37;;;;;;;7.18;0.82;;;;;;;;;;5054083;28;20112;-73
2023/04/25 11:55:10;;;;;;;6.82;0.80;;;;;;;;;;5052652;28;20088;-74
2023/04/25 11:57:38;;;;;;;9.48;0.95;;;;;;;;;;5035765;28;20131;-74
2023/04/25 12:00:12;;;;;;;6.53;0.73;;;;;;;;;;5053204;28;20044;-77
2023/04/25 12:02:42;;;;;;;8.45;0.90;;;;;;;;;;5052907;28;20457;-74
2023/04/25 12:05:09;;;;;;;7.35;0.80;;;;;;;;;;5053883;28;20131;-69
2023/04/25 12:07:36;;;;;;;8.88;0.80;;;;;;;;;;5052089;28;20111;-73
2023/04/25 12:10:07;;;;;;;6.00;0.70;;;;;;;;;;5053141;28;20092;-74
2023/04/25 12:12:34;;;;;;;10.38;0.70;;;;;;;;;;5053563;28;20127;-76
2023/04/25 12:15:15;;;;;;;7.40;0.75;;;;;;;;;;5051862;28;20049;-76
2023/04/25 12:17:42;;;;;;;4.22;0.40;;;;;;;;;;5052454;28;20080;-73
2023/04/25 12:20:13;;;;;;;4.78;0.57;;;9.80;99.90;;;;;;5052990;28;20080;-73
2023/04/25 12:22:44;;;;;;;5.32;0.55;;;10.20;99.90;;;;;;5053188;28;20073;-73
2023/04/25 12:25:13;;;;;;;5.65;0.73;;;10.00;99.90;;;;;;5053025;28;20485;-72
2023/04/25 12:27:43;;;;;;;6.78;0.60;;;9.60;99.90;;;;;;5051656;28;20085;-73
2023/04/25 12:30:10;;;;;;;7.60;0.82;;;9.70;99.90;;;;;;5053016;28;20070;-70
2023/04/25 12:32:37;;;;;;;11.65;0.80;;;9.30;99.90;;;;;;5035583;28;20491;-71
2023/04/25 12:35:06;;;;;;;;;;;9.70;99.90;;;;;;5053598;28;20045;-72
2023/04/25 12:37:32;;;;;;;11.63;1.27;;;;;;;;;;5053469;28;19921;-72
2023/04/25 12:39:58;;;;;;;6.93;0.73;;;;;;;;;;5051588;28;20085;-70
2023/04/25 12:42:24;;;;;;;9.20;1.13;;;9.50;99.90;;;;;;5053222;28;20390;-73
2023/04/25 12:44:50;;;;;;;7.53;0.60;;;;;;;;;;5052826;28;20290;-74
2023/04/25 12:47:17;;;;;;;8.80;0.93;;;;;;;;;;5068656;28;20056;-75
2023/04/25 12:49:43;;;;;;;7.35;0.80;;;;;;;;;;5051736;28;20078;-75
2023/04/25 12:52:09;;;;;;;10.95;0.98;;;;;;;;;;5053020;28;20397;-75
2023/04/25 12:54:35;;;;;;;6.57;0.70;;;10.10;99.90;;;;;;5051808;28;20088;-75
2023/04/25 12:57:02;;;;;;;8.20;0.57;;;10.20;99.90;;;;;;5053009;28;20458;-74